Decoded Metar for KAXS (ALTUS/QUARTZ MTN in OK, USA) (IATA:AXS) | Meteo·Mobile Aviation Weather
aviador You're here:

KAXS Decoded Metar

ALTUS/QUARTZ MTN in OK, USA
Report Time2018-11-21 17:35:00
UTC Time2018-11-21 17:52:23
Flight Rules vfr VFR
Wind190° at 04 kt
W.Decomp.*RWY 17: 3.9 kt HW 0.8 kt RCW
W.Rank190° ranks 7
Current wind is below 190° avg. (11.2)
Visibility9999 m
Phenomena:N/A
Clouds:N/A
Expected CloudBase > 2,800 ft AGL from Temp-Dew spread
CeilingNone
Temp10°C (ISA -2)
Dew Point03°C (62% RH)
AAT7.1°C
QNH1027 hPa
Density Alt814 ft
Elevation1,434 ft
Report Wrong Elevation
Raw Report
KAXS 211735Z AUTO 19004KT 10SM CLR 10/03 A3034 RMK AO2
T01030025=

Extra information for KAXS:More info

Metar Taf Metar & Taf Last 4 Metars F.Rules Stats Wind Profile Meteogram Temp Stats Airport Information Weather charts Add Link Nearby VenuesMetar ALERT Operation Metar Decoded Social comments

AIRNAV info for KAXS